Aeroporto :
LOGIN :

Iscrizione | Disclaimer

   EN    FR    IT 

 










Sommario :    VFR   VFR Marginale   IFR   IFR Intensivo   IFR Molto Intensivo
Visibilità : 
Base nubi : 
>= 8 km
>= 3000ft
5 / 8 km
1000 / 3000 ft
1500m / 5 km
500 / 1000 ft
800 / 1500m
200 / 500 ft
< 800m
< 200 ft
Simboli :   Temporali  Nebbia  Neve Forte  Precipitazioni Forti  Vento > 20 kt
SIGMETs :   Varie  Temporali  Ghiacco  Turbolenza  Onda orograficha  Ceneri Vulcaniche






- Altitudine del aeroporto : 32 ft
- Codice IATA : LKZ


EGUL - RAF Lakenheath

ULTIMO METAR :
  • 291656Z AUTO 06011KT 9999 CLR 20/01 A3030 RMK AO2 SLP264 T01980012 $

METARs OBSOLETI :
  • 291556Z AUTO 08011KT 9999 CLR 21/03 A3030 RMK AO2 SLP264 T02080026 $
  • 291456Z AUTO 07010G15KT 9999 CLR 21/03 A3031 RMK AO2 SLP267 T02140026 57017 $

TAF TAF EGUL
Valido dal 29 a 14 ore il 30 a 20 ore UTC


291400Z 2914/3020 08012KT 9999 FEW200 QNH3030INS
BECMG 2920/2921 07006KT 9999 SKC QNH3025INS
BECMG 3002/3003 05006KT 6000 BR SKC QNH3024INS
BECMG 3007/3008 10012G20KT 9999 NSW SKC QNH3020INS TX22/2915Z TN07/3003Z LAST NO AMDS AFT 2916 NEXT 0106



MetMap, La meteo Aeronautica in un colpo d'occhio ! - Copyright ORBIFLY Dicembre 2007 - Disclaimer

ORBIFLY MET'MAP TEAM :

Programmazione e sviluppo : Alexandra Zaïnal
Concezione : Baudouin d'Aumeries
Aiuto per la programmazione : Marc-Olivier Méhu
Supporto tecnico e logistico : Manuel Goepfert
Aiuto per la traduzione : Arnaldo La Scala

Contatto : metmap@orbifly.com




FONTI E CREDITI :

   NOAA